.
WxDataArchive / Data Records for 2006-06-12
2006-06-11 June 2006 2006-06-13

Data Records for Monday, 12 June 2006

Time	Temp	Chill	HIndex	Humid	Dewpt	 Wind 	HiWind	WindDir	Rain 	Barom 
-----	----	-----	------	-----	-----	------	------	-------	-----	----- 
00:00	55.9	55.9	55.9	81	50.2	0	0	---	0.00	29.939 
00:05	55.9	55.9	55.9	81	50.2	0	0	---	0.00	29.939 
00:10	55.9	55.9	55.9	80	49.8	0	0	---	0.00	29.939 
00:15	56.3	56.3	56.3	80	50.2	0	0	---	0.00	29.939 
00:20	56.6	56.6	56.6	79	50.2	0	0	---	0.00	29.939 
00:25	56.6	56.6	56.6	77	49.5	0	0	---	0.00	29.939 
00:30	56.6	56.6	56.6	78	49.8	0	0	---	0.00	29.934 
00:35	56.6	56.6	56.6	78	49.8	0	0	---	0.00	29.934 
00:40	56.5	56.5	56.5	78	49.7	0	0	---	0.00	29.934 
00:45	56.5	56.5	56.5	77	49.4	0	1	22	0.00	29.933 
00:50	56.5	56.5	56.5	74	48.3	0	2	45	0.00	29.933 
00:55	56.7	56.7	56.7	72	47.8	0	2	45	0.00	29.933 
01:00	57.0	57.0	57.0	70	47.3	0	1	45	0.00	29.934 
01:05	57.2	57.2	57.2	69	47.1	0	1	45	0.00	29.934 
01:10	57.2	57.2	57.2	70	47.5	0	1	45	0.00	29.934 
01:15	57.2	57.2	57.2	70	47.5	0	1	45	0.00	29.932 
01:20	57.0	57.0	57.0	70	47.3	0	0	---	0.00	29.932 
01:25	56.9	56.9	56.9	70	47.2	0	0	---	0.00	29.932 
01:30	56.6	56.6	56.6	71	47.3	0	0	---	0.00	29.933 
01:35	56.3	56.3	56.3	72	47.4	0	0	---	0.00	29.933 
01:40	56.0	56.0	56.0	73	47.5	0	0	---	0.00	29.933 
01:45	55.7	55.7	55.7	73	47.2	0	0	---	0.00	29.940 
01:50	55.6	55.6	55.6	75	47.8	0	1	45	0.00	29.940 
01:55	55.3	55.3	55.3	75	47.5	0	0	---	0.00	29.940 
02:00	55.1	55.1	55.1	75	47.3	0	0	---	0.00	29.944 
02:05	54.8	54.8	54.8	76	47.4	0	0	---	0.00	29.944 
02:10	54.7	54.7	54.7	76	47.3	0	0	---	0.00	29.944 
02:15	54.7	54.7	54.7	77	47.6	0	0	---	0.00	29.946 
02:20	54.5	54.5	54.5	77	47.4	0	0	---	0.00	29.946 
02:25	54.5	54.5	54.5	77	47.4	0	0	---	0.00	29.946 
02:30	54.5	54.5	54.5	77	47.4	0	0	---	0.00	29.945 
02:35	54.4	54.4	54.4	77	47.3	0	0	---	0.00	29.945 
02:40	54.4	54.4	54.4	77	47.3	0	0	---	0.00	29.945 
02:45	54.2	54.2	54.2	77	47.1	0	0	---	0.00	29.947 
02:50	54.2	54.2	54.2	78	47.5	0	0	---	0.00	29.947 
02:55	54.2	54.2	54.2	77	47.1	0	0	---	0.00	29.947 
03:00	54.1	54.1	54.1	78	47.4	0	0	---	0.00	29.945 
03:05	54.1	54.1	54.1	79	47.7	0	0	---	0.00	29.945 
03:10	53.9	53.9	53.9	79	47.5	0	0	---	0.00	29.945 
03:15	53.8	53.8	53.8	79	47.4	0	0	---	0.00	29.942 
03:20	53.8	53.8	53.8	80	47.8	0	0	---	0.00	29.942 
03:25	53.6	53.6	53.6	80	47.6	0	0	---	0.00	29.942 
03:30	53.6	53.6	53.6	81	47.9	0	0	---	0.00	29.944 
03:35	53.6	53.6	53.6	81	47.9	0	0	---	0.00	29.944 
03:40	53.6	53.6	53.6	81	47.9	0	0	---	0.00	29.944 
03:45	53.6	53.6	53.6	81	47.9	0	0	---	0.00	29.947 
03:50	53.6	53.6	53.6	81	47.9	0	0	---	0.00	29.947 
03:55	53.8	53.8	53.8	81	48.1	0	1	45	0.00	29.947 
04:00	53.9	53.9	53.9	80	47.9	0	0	---	0.00	29.947 
04:05	53.9	53.9	53.9	80	47.9	0	0	---	0.00	29.947 
04:10	54.1	54.1	54.1	81	48.4	0	0	---	0.00	29.947 
04:15	54.1	54.1	54.1	81	48.4	0	0	---	0.00	29.953 
04:20	54.1	54.1	54.1	80	48.1	0	0	---	0.00	29.953 
04:25	54.1	54.1	54.1	80	48.1	0	0	---	0.00	29.953 
04:30	54.2	54.2	54.2	80	48.2	0	0	---	0.00	29.957 
04:35	54.2	54.2	54.2	80	48.2	0	0	---	0.00	29.957 
04:40	54.1	54.1	54.1	80	48.1	0	0	---	0.00	29.957 
04:45	54.1	54.1	54.1	80	48.1	0	0	---	0.00	29.961 
04:50	53.9	53.9	53.9	80	47.9	0	0	---	0.00	29.961 
04:55	53.6	53.6	53.6	81	47.9	0	0	---	0.00	29.961 
05:00	53.5	53.5	53.5	81	47.8	0	0	---	0.00	29.965 
05:05	53.2	53.2	53.2	82	47.8	0	0	---	0.00	29.965 
05:10	53.1	53.1	53.1	82	47.8	0	0	---	0.00	29.965 
05:15	52.8	52.8	52.8	83	47.8	0	0	---	0.00	29.974 
05:20	52.3	52.3	52.3	83	47.3	0	0	---	0.00	29.974 
05:25	52.2	52.2	52.2	84	47.5	0	0	---	0.00	29.974 
05:30	51.9	51.9	51.9	85	47.5	0	0	---	0.00	29.975 
05:35	51.7	51.7	51.7	85	47.3	0	0	---	0.00	29.975 
05:40	51.4	51.4	51.4	86	47.4	0	0	---	0.00	29.975 
05:45	51.3	51.3	51.3	86	47.3	0	0	---	0.00	29.978 
05:50	51.0	51.0	51.0	87	47.3	0	0	---	0.00	29.978 
05:55	51.0	51.0	51.0	88	47.6	0	0	---	0.00	29.978 
06:00	51.0	51.0	51.0	88	47.6	0	0	---	0.00	29.980 
06:05	51.0	51.0	51.0	89	47.9	0	0	---	0.00	29.980 
06:10	51.0	51.0	51.0	89	47.9	0	0	---	0.00	29.980 
06:15	51.1	51.1	51.1	89	48.0	0	0	---	0.00	29.986 
06:20	51.3	51.3	51.3	89	48.2	0	0	---	0.00	29.986 
06:25	51.6	51.6	51.6	88	48.2	0	0	---	0.00	29.986 
06:30	51.7	51.7	51.7	87	48.0	0	0	---	0.00	29.993 
06:35	51.9	51.9	51.9	87	48.2	0	0	---	0.00	29.993 
06:40	51.9	51.9	51.9	86	47.8	0	1	45	0.00	29.993 
06:45	52.0	52.0	52.0	86	47.9	0	1	45	0.00	29.996 
06:50	52.2	52.2	52.2	86	48.1	0	2	45	0.00	29.996 
06:55	52.5	52.5	52.5	85	48.1	0	1	45	0.00	29.996 
07:00	52.8	52.8	52.8	84	48.1	0	2	45	0.00	30.003 
07:05	53.2	53.2	53.2	82	47.8	1	2	45	0.00	30.003 
07:10	53.8	53.8	53.8	81	48.1	0	3	45	0.00	30.003 
07:15	54.2	54.2	54.2	81	48.5	1	2	112	0.00	30.008 
07:20	54.5	54.5	54.5	79	48.1	1	3	112	0.00	30.008 
07:25	55.3	55.3	55.3	78	48.6	1	3	112	0.00	30.008 
07:30	56.0	56.0	56.0	77	48.9	1	2	112	0.00	30.009 
07:35	56.5	56.5	56.5	76	49.0	1	3	112	0.00	30.009 
07:40	57.0	57.0	57.0	75	49.2	0	2	112	0.00	30.009 
07:45	57.5	57.5	57.5	75	49.6	1	3	90	0.00	30.010 
07:50	57.8	57.8	57.8	73	49.2	2	3	90	0.00	30.010 
07:55	58.1	58.1	58.1	73	49.5	2	5	90	0.00	30.010 
08:00	58.4	58.4	58.4	72	49.4	1	3	112	0.00	30.014 
08:05	58.9	58.9	58.9	72	49.9	1	3	90	0.00	30.014 
08:10	59.3	59.3	59.3	71	49.9	1	5	112	0.00	30.014 
08:15	59.6	59.6	59.6	68	49.0	2	6	90	0.00	30.021 
08:20	59.8	59.8	59.8	68	49.2	2	6	90	0.00	30.021 
08:25	59.9	59.9	59.9	68	49.3	3	7	90	0.00	30.021 
08:30	60.1	60.1	60.1	67	49.1	2	5	112	0.00	30.023 
08:35	60.4	60.4	60.4	67	49.4	2	4	90	0.00	30.023 
08:40	60.9	60.9	60.9	65	49.1	1	4	68	0.00	30.023 
08:45	61.0	61.0	61.0	63	48.3	3	5	90	0.00	30.021 
08:50	61.2	61.2	61.2	63	48.5	3	6	90	0.00	30.021 
08:55	61.2	61.2	61.2	63	48.5	3	6	90	0.00	30.021 
09:00	61.3	61.3	61.3	62	48.2	3	6	90	0.00	30.022 
09:05	61.6	61.6	61.6	62	48.4	2	5	90	0.00	30.022 
09:10	62.1	62.1	62.1	61	48.5	3	6	90	0.00	30.022 
09:15	62.3	62.3	62.3	61	48.7	3	5	90	0.00	30.024 
09:20	62.7	62.7	62.7	62	49.5	1	4	90	0.00	30.024 
09:25	63.1	63.1	63.1	62	49.9	2	5	90	0.00	30.024 
09:30	63.7	63.7	63.7	63	50.9	1	4	45	0.00	30.025 
09:35	64.2	64.2	64.2	58	49.1	1	4	90	0.00	30.025 
09:40	64.0	64.0	64.0	58	48.9	2	6	90	0.00	30.025 
09:45	64.0	64.0	64.0	62	50.7	1	3	90	0.00	30.030 
09:50	64.7	64.7	64.7	61	50.9	0	2	68	0.00	30.030 
09:55	65.0	65.0	65.0	57	49.4	2	4	68	0.00	30.030 
10:00	64.8	64.8	64.8	58	49.7	3	7	90	0.00	30.032 
10:05	64.3	64.3	64.3	58	49.2	2	5	112	0.00	30.032 
10:10	64.8	64.8	64.8	57	49.2	2	4	112	0.00	30.032 
10:15	64.8	64.8	64.8	54	47.8	3	6	112	0.00	30.036 
10:20	65.0	65.0	65.0	58	49.9	2	5	90	0.00	30.036 
10:25	65.6	65.6	65.6	61	51.8	2	5	112	0.00	30.036 
10:30	66.1	66.1	66.1	55	49.5	1	4	112	0.00	30.036 
10:35	66.8	66.8	66.8	53	49.1	2	5	112	0.00	30.036 
10:40	66.6	66.6	66.6	54	49.4	2	5	90	0.00	30.036 
10:45	66.9	66.9	66.9	54	49.7	1	6	112	0.00	30.033 
10:50	67.1	67.1	67.1	53	49.4	1	3	135	0.00	30.033 
10:55	67.1	67.1	67.1	55	50.4	2	5	90	0.00	30.033 
11:00	67.4	67.4	67.4	55	50.7	0	4	90	0.00	30.031 
11:05	67.9	67.9	67.9	55	51.1	1	4	68	0.00	30.031 
11:10	68.6	68.6	68.6	54	51.3	1	4	90	0.00	30.031 
11:15	68.6	68.6	68.6	53	50.8	1	3	68	0.00	30.037 
11:20	68.4	68.4	68.4	50	49.0	1	5	292	0.00	30.037 
11:25	68.4	68.4	68.4	50	49.0	3	5	112	0.00	30.037 
11:30	68.3	68.3	68.3	56	52.0	1	4	90	0.00	30.038 
11:35	68.8	68.8	68.8	53	51.0	2	5	90	0.00	30.038 
11:40	68.8	68.8	68.8	48	48.3	2	5	90	0.00	30.038 
11:45	69.1	69.1	69.1	50	49.7	2	5	135	0.00	30.039 
11:50	69.6	69.6	69.6	52	51.2	1	3	135	0.00	30.039 
11:55	69.6	69.6	69.6	47	48.5	2	5	112	0.00	30.039 
12:00	69.8	69.8	69.8	53	51.9	2	6	112	0.00	30.037 
12:05	69.9	69.9	69.9	51	50.9	1	5	45	0.00	30.037 
12:10	69.9	69.9	69.9	47	48.7	1	4	90	0.00	30.037 
12:15	69.6	69.6	69.6	49	49.6	2	9	112	0.00	30.037 
12:20	69.6	69.6	69.6	54	52.2	1	4	202	0.00	30.037 
12:25	69.9	69.9	69.9	56	53.5	0	2	112	0.00	30.037 
12:30	69.9	69.9	69.9	47	48.7	1	4	292	0.00	30.041 
12:35	70.1	70.1	70.1	50	50.6	0	2	315	0.00	30.041 
12:40	70.3	70.3	70.3	51	51.3	1	4	270	0.00	30.041 
12:45	69.9	69.9	69.9	46	48.2	2	6	90	0.00	30.040 
12:50	70.1	70.1	70.1	45	47.8	3	9	90	0.00	30.040 
12:55	70.3	70.3	70.3	46	48.5	1	3	112	0.00	30.040 
13:00	70.4	70.4	70.4	45	48.0	2	6	45	0.00	30.040 
13:05	70.4	70.4	70.4	46	48.6	1	3	315	0.00	30.040 
13:10	70.9	70.9	70.9	46	49.1	1	2	0	0.00	30.040 
13:15	71.3	71.3	71.3	51	52.2	1	4	68	0.00	30.045 
13:20	71.3	71.3	71.3	43	47.6	2	6	68	0.00	30.045 
13:25	70.8	70.8	70.8	44	47.8	1	3	112	0.00	30.045 
13:30	70.4	70.4	70.4	49	50.3	1	3	248	0.00	30.050 
13:35	70.4	70.4	70.4	46	48.6	1	5	112	0.00	30.050 
13:40	70.6	70.6	70.6	46	48.8	1	3	112	0.00	30.050 
13:45	71.3	71.3	71.3	54	53.8	2	5	90	0.00	30.039 
13:50	71.6	71.6	71.6	48	50.9	2	7	112	0.00	30.039 
13:55	71.8	71.8	71.8	49	51.6	1	2	112	0.00	30.039 
14:00	72.1	72.1	72.1	51	53.0	2	7	112	0.00	30.038 
14:05	72.5	72.5	72.5	49	52.2	1	3	0	0.00	30.038 
14:10	72.5	72.5	72.5	47	51.1	1	5	68	0.00	30.038 
14:15	72.8	72.8	72.8	45	50.2	1	4	112	0.00	30.038 
14:20	72.8	72.8	72.8	44	49.6	1	5	90	0.00	30.038 
14:25	72.5	72.5	72.5	49	52.2	1	4	68	0.00	30.038 
14:30	72.5	72.5	72.5	46	50.5	2	9	90	0.00	30.037 
14:35	72.1	72.1	72.1	44	49.0	2	5	112	0.00	30.037 
14:40	72.5	72.5	72.5	52	53.9	1	5	112	0.00	30.037 
14:45	73.3	73.3	73.3	44	50.1	1	7	135	0.00	30.037 
14:50	73.7	73.7	73.7	48	52.8	1	4	90	0.00	30.037 
14:55	73.7	73.7	73.7	43	49.8	1	4	45	0.00	30.037 
15:00	73.7	73.7	73.7	40	47.9	0	2	292	0.00	30.034 
15:05	73.9	73.9	73.9	39	47.4	2	6	112	0.00	30.034 
15:10	73.7	73.7	73.7	43	49.8	1	3	112	0.00	30.034 
15:15	73.9	73.9	73.9	44	50.6	1	4	22	0.00	30.035 
15:20	74.4	74.4	74.4	43	50.4	1	4	68	0.00	30.035 
15:25	74.4	74.4	74.4	39	47.8	2	5	112	0.00	30.035 
15:30	74.2	74.2	74.2	39	47.6	2	4	135	0.00	30.036 
15:35	74.2	74.2	74.2	43	50.2	1	3	338	0.00	30.036 
15:40	74.4	74.4	74.4	39	47.8	1	3	45	0.00	30.036 
15:45	74.6	74.6	74.6	43	50.6	0	2	45	0.00	30.035 
15:50	74.4	74.4	74.4	41	49.1	2	5	135	0.00	30.035 
15:55	73.5	73.5	73.5	41	48.3	2	4	112	0.00	30.035 
16:00	73.3	73.3	73.3	43	49.4	1	4	112	0.00	30.036 
16:05	73.5	73.5	73.5	40	47.7	2	5	112	0.00	30.036 
16:10	74.0	74.0	74.0	44	50.7	1	2	112	0.00	30.036 
16:15	74.7	74.7	74.7	43	50.7	1	3	22	0.00	30.034 
16:20	74.7	74.7	74.7	41	49.4	0	2	45	0.00	30.034 
16:25	75.3	75.3	77.7	44	51.9	1	4	90	0.00	30.034 
16:30	75.6	75.6	77.8	43	51.5	1	4	112	0.00	30.033 
16:35	75.6	75.6	77.8	45	52.7	2	4	112	0.00	30.033 
16:40	74.7	74.7	74.7	42	50.1	1	4	112	0.00	30.033 
16:45	73.3	73.3	73.3	42	48.8	1	3	112	0.00	30.036 
16:50	72.8	72.8	72.8	45	50.2	1	3	45	0.00	30.036 
16:55	73.2	73.2	73.2	43	49.3	1	3	45	0.00	30.036 
17:00	73.2	73.2	73.2	45	50.6	1	3	292	0.00	30.038 
17:05	73.7	73.7	73.7	43	49.8	1	3	270	0.00	30.038 
17:10	73.7	73.7	73.7	42	49.2	0	1	270	0.00	30.038 
17:15	73.5	73.5	73.5	44	50.2	1	2	90	0.00	30.038 
17:20	73.9	73.9	73.9	43	50.0	1	3	90	0.00	30.038 
17:25	73.9	73.9	73.9	43	50.0	0	2	45	0.00	30.038 
17:30	73.2	73.2	73.2	43	49.3	0	2	45	0.00	30.040 
17:35	72.7	72.7	72.7	44	49.5	0	2	45	0.00	30.040 
17:40	72.1	72.1	72.1	44	49.0	0	1	45	0.00	30.040 
17:45	72.8	72.8	72.8	44	49.6	0	2	45	0.00	30.041 
17:50	73.9	73.9	73.9	43	50.0	1	4	315	0.00	30.041 
17:55	73.9	73.9	73.9	46	51.8	0	2	292	0.00	30.041 
18:00	74.2	74.2	74.2	46	52.1	0	2	292	0.00	30.040 
18:05	73.9	73.9	73.9	46	51.8	2	5	90	0.00	30.040 
18:10	73.3	73.3	73.3	44	50.1	1	4	68	0.00	30.040 
18:15	72.8	72.8	72.8	45	50.2	1	5	90	0.00	30.042 
18:20	72.5	72.5	72.5	45	49.9	1	4	112	0.00	30.042 
18:25	72.1	72.1	72.1	46	50.2	2	4	112	0.00	30.042 
18:30	72.1	72.1	72.1	45	49.6	2	4	112	0.00	30.043 
18:35	72.1	72.1	72.1	46	50.2	1	3	90	0.00	30.043 
18:40	72.1	72.1	72.1	48	51.3	1	5	90	0.00	30.043 
18:45	72.0	72.0	72.0	45	49.5	1	4	68	0.00	30.041 
18:50	72.0	72.0	72.0	46	50.1	1	3	68	0.00	30.041 
18:55	71.8	71.8	71.8	47	50.5	0	2	45	0.00	30.041 
19:00	71.8	71.8	71.8	49	51.6	0	2	45	0.00	30.045 
19:05	71.6	71.6	71.6	47	50.3	0	1	45	0.00	30.045 
19:10	71.5	71.5	71.5	51	52.4	0	0	---	0.00	30.045 
19:15	71.5	71.5	71.5	48	50.8	0	2	45	0.00	30.042 
19:20	71.5	71.5	71.5	47	50.2	0	3	112	0.00	30.042 
19:25	71.3	71.3	71.3	47	50.0	0	3	112	0.00	30.042 
19:30	71.3	71.3	71.3	46	49.4	0	1	112	0.00	30.043 
19:35	71.1	71.1	71.1	46	49.3	1	3	112	0.00	30.043 
19:40	71.1	71.1	71.1	50	51.5	0	2	90	0.00	30.043 
19:45	71.1	71.1	71.1	50	51.5	0	2	90	0.00	30.043 
19:50	70.9	70.9	70.9	53	52.9	0	2	90	0.00	30.043 
19:55	70.8	70.8	70.8	52	52.3	0	3	90	0.00	30.043 
20:00	70.6	70.6	70.6	49	50.5	0	3	90	0.00	30.045 
20:05	70.6	70.6	70.6	51	51.6	0	2	90	0.00	30.045 
20:10	70.3	70.3	70.3	50	50.8	0	2	90	0.00	30.045 
20:15	70.1	70.1	70.1	52	51.6	0	1	90	0.00	30.039 
20:20	69.8	69.8	69.8	52	51.4	0	1	90	0.00	30.039 
20:25	69.4	69.4	69.4	53	51.5	0	0	---	0.00	30.039 
20:30	69.1	69.1	69.1	54	51.7	0	0	---	0.00	30.038 
20:35	68.8	68.8	68.8	55	52.0	0	0	---	0.00	30.038 
20:40	68.4	68.4	68.4	55	51.6	0	2	90	0.00	30.038 
20:45	68.3	68.3	68.3	55	51.5	0	1	90	0.00	30.037 
20:50	67.9	67.9	67.9	56	51.6	0	1	90	0.00	30.037 
20:55	67.8	67.8	67.8	57	52.0	0	1	90	0.00	30.037 
21:00	67.4	67.4	67.4	58	52.1	0	1	90	0.00	30.038 
21:05	67.3	67.3	67.3	58	52.0	0	2	90	0.00	30.038 
21:10	66.9	66.9	66.9	58	51.6	0	2	90	0.00	30.038 
21:15	66.6	66.6	66.6	59	51.8	0	2	90	0.00	30.038 
21:20	66.3	66.3	66.3	59	51.5	0	1	90	0.00	30.038 
21:25	65.8	65.8	65.8	61	52.0	0	0	---	0.00	30.038 
21:30	65.5	65.5	65.5	61	51.7	0	0	---	0.00	30.048 
21:35	65.2	65.2	65.2	62	51.8	0	0	---	0.00	30.048 
21:40	64.7	64.7	64.7	63	51.8	0	0	---	0.00	30.048 
21:45	64.3	64.3	64.3	64	51.9	0	0	---	0.00	30.050 
21:50	64.0	64.0	64.0	65	52.0	0	0	---	0.00	30.050 
21:55	63.5	63.5	63.5	66	51.9	0	0	---	0.00	30.050 
22:00	63.2	63.2	63.2	67	52.1	0	0	---	0.00	30.052 
22:05	62.7	62.7	62.7	69	52.4	0	0	---	0.00	30.052 
22:10	62.4	62.4	62.4	70	52.5	0	0	---	0.00	30.052 
22:15	62.0	62.0	62.0	71	52.5	0	0	---	0.00	30.056 
22:20	61.6	61.6	61.6	72	52.5	0	0	---	0.00	30.056 
22:25	61.3	61.3	61.3	73	52.6	0	0	---	0.00	30.056 
22:30	61.0	61.0	61.0	73	52.3	0	0	---	0.00	30.060 
22:35	60.7	60.7	60.7	74	52.4	0	0	---	0.00	30.060 
22:40	60.5	60.5	60.5	74	52.2	0	0	---	0.00	30.060 
22:45	60.4	60.4	60.4	75	52.4	0	0	---	0.00	30.062 
22:50	60.1	60.1	60.1	76	52.5	0	0	---	0.00	30.062 
22:55	59.9	59.9	59.9	76	52.3	0	0	---	0.00	30.062 
23:00	59.6	59.6	59.6	77	52.4	0	0	---	0.00	30.064 
23:05	59.5	59.5	59.5	77	52.3	0	0	---	0.00	30.064 
23:10	59.2	59.2	59.2	78	52.3	0	0	---	0.00	30.064 
23:15	59.0	59.0	59.0	79	52.5	0	0	---	0.00	30.060 
23:20	58.7	58.7	58.7	79	52.2	0	0	---	0.00	30.060 
23:25	58.6	58.6	58.6	80	52.4	0	0	---	0.00	30.060 
23:30	58.4	58.4	58.4	81	52.6	0	0	---	0.00	30.055 
23:35	58.1	58.1	58.1	81	52.3	0	0	---	0.00	30.055 
23:40	58.0	58.0	58.0	82	52.5	0	0	---	0.00	30.055 
23:45	57.8	57.8	57.8	83	52.7	0	0	---	0.00	30.054 
23:50	57.6	57.6	57.6	84	52.8	0	0	---	0.00	30.054 
23:55	57.5	57.5	57.5	84	52.7	0	0	---	0.00	30.054 

CoCoRaHS
IN-AL-39
A2 Web Hosting
Creative Commons License
GoDaddy
Look for:

loaded 2017-12-12 16:52:18 • last modified 2010-11-18 10:43:29
Privacy PolicyDisclaimer
• wx.awcolley.com is powered by PmWiki v.2002016 •
• all content (unless otherwise noted) © 2017 A W Colley